sensor_id;sensor_type;location;lat;lon;timestamp;pressure;altitude;pressure_sealevel;temperature;humidity
3150;BME280;32503;47.748;8.960;2024-01-11T00:00:46;97680.00;;;0.54;67.32
3150;BME280;32503;47.748;8.960;2024-01-11T00:03:15;97685.84;;;0.51;67.40
3150;BME280;32503;47.748;8.960;2024-01-11T00:05:42;97686.38;;;0.53;67.56
3150;BME280;32503;47.748;8.960;2024-01-11T00:08:11;97677.34;;;0.54;67.28
3150;BME280;32503;47.748;8.960;2024-01-11T00:10:38;97675.47;;;0.49;67.85
3150;BME280;32503;47.748;8.960;2024-01-11T00:13:05;97682.41;;;0.50;67.64
3150;BME280;32503;47.748;8.960;2024-01-11T00:15:32;97678.44;;;0.48;67.63
3150;BME280;32503;47.748;8.960;2024-01-11T00:17:59;97678.13;;;0.49;67.73
3150;BME280;32503;47.748;8.960;2024-01-11T00:20:27;97681.63;;;0.45;67.84
3150;BME280;32503;47.748;8.960;2024-01-11T00:22:54;97678.69;;;0.46;67.79
3150;BME280;32503;47.748;8.960;2024-01-11T00:25:21;97671.50;;;0.36;67.70
3150;BME280;32503;47.748;8.960;2024-01-11T00:27:49;97678.44;;;0.43;68.05
3150;BME280;32503;47.748;8.960;2024-01-11T00:30:16;97686.41;;;0.43;67.85
3150;BME280;32503;47.748;8.960;2024-01-11T00:32:43;97680.03;;;0.38;67.64
3150;BME280;32503;47.748;8.960;2024-01-11T00:35:10;97683.75;;;0.37;67.97
3150;BME280;32503;47.748;8.960;2024-01-11T00:37:39;97683.75;;;0.37;68.09
3150;BME280;32503;47.748;8.960;2024-01-11T00:40:08;97680.03;;;0.38;67.92
3150;BME280;32503;47.748;8.960;2024-01-11T00:42:35;97688.53;;;0.41;67.82
3150;BME280;32503;47.748;8.960;2024-01-11T00:45:02;97683.22;;;0.41;67.94
3150;BME280;32503;47.748;8.960;2024-01-11T00:47:29;97692.78;;;0.42;67.83
3150;BME280;32503;47.748;8.960;2024-01-11T00:49:56;97686.94;;;0.40;67.80
3150;BME280;32503;47.748;8.960;2024-01-11T00:52:23;97687.47;;;0.36;67.64
3150;BME280;32503;47.748;8.960;2024-01-11T00:54:52;97682.16;;;0.36;67.70
3150;BME280;32503;47.748;8.960;2024-01-11T00:57:19;97680.53;;;0.41;67.79
3150;BME280;32503;47.748;8.960;2024-01-11T00:59:46;97684.28;;;0.40;67.74
3150;BME280;32503;47.748;8.960;2024-01-11T01:02:13;97694.41;;;0.37;67.93
3150;BME280;32503;47.748;8.960;2024-01-11T01:04:40;97688.00;;;0.33;67.63
3150;BME280;32503;47.748;8.960;2024-01-11T01:07:07;97693.31;;;0.33;68.00
3150;BME280;32503;47.748;8.960;2024-01-11T01:09:34;97688.56;;;0.35;67.36
3150;BME280;32503;47.748;8.960;2024-01-11T01:12:03;97696.53;;;0.35;67.90
3150;BME280;32503;47.748;8.960;2024-01-11T01:14:30;97691.47;;;0.34;67.88
3150;BME280;32503;47.748;8.960;2024-01-11T01:16:57;97693.31;;;0.38;67.64
3150;BME280;32503;47.748;8.960;2024-01-11T01:19:24;97697.06;;;0.37;67.31
3150;BME280;32503;47.748;8.960;2024-01-11T01:21:51;97702.13;;;0.39;67.11
3150;BME280;32503;47.748;8.960;2024-01-11T01:24:18;97703.97;;;0.33;67.02
3150;BME280;32503;47.748;8.960;2024-01-11T01:26:45;97709.31;;;0.28;67.13
3150;BME280;32503;47.748;8.960;2024-01-11T01:29:14;97702.38;;;0.22;67.08
3150;BME280;32503;47.748;8.960;2024-01-11T01:31:41;97712.50;;;0.20;66.92
3150;BME280;32503;47.748;8.960;2024-01-11T01:34:08;97714.06;;;0.21;66.99
3150;BME280;32503;47.748;8.960;2024-01-11T01:36:35;97716.19;;;0.24;66.52
3150;BME280;32503;47.748;8.960;2024-01-11T01:39:02;97714.38;;;0.20;66.72
3150;BME280;32503;47.748;8.960;2024-01-11T01:41:32;97706.91;;;0.11;67.08
3150;BME280;32503;47.748;8.960;2024-01-11T01:43:59;97713.53;;;0.19;66.66
3150;BME280;32503;47.748;8.960;2024-01-11T01:46:28;97722.06;;;0.21;66.61
3150;BME280;32503;47.748;8.960;2024-01-11T01:48:57;97718.06;;;0.18;66.66
3150;BME280;32503;47.748;8.960;2024-01-11T01:51:28;97726.84;;;0.19;66.63
3150;BME280;32503;47.748;8.960;2024-01-11T01:53:57;97727.09;;;0.17;66.76
3150;BME280;32503;47.748;8.960;2024-01-11T01:56:24;97726.31;;;0.17;66.71
3150;BME280;32503;47.748;8.960;2024-01-11T01:58:52;97712.50;;;0.15;66.58
3150;BME280;32503;47.748;8.960;2024-01-11T02:01:21;97725.78;;;0.20;66.65
3150;BME280;32503;47.748;8.960;2024-01-11T02:03:52;97733.75;;;0.20;66.67
3150;BME280;32503;47.748;8.960;2024-01-11T02:06:23;97733.75;;;0.20;66.65
3150;BME280;32503;47.748;8.960;2024-01-11T02:08:52;97730.84;;;0.16;66.31
3150;BME280;32503;47.748;8.960;2024-01-11T02:11:20;97733.75;;;0.15;66.42
3150;BME280;32503;47.748;8.960;2024-01-11T02:13:49;97735.88;;;0.13;66.35
3150;BME280;32503;47.748;8.960;2024-01-11T02:16:16;97741.72;;;0.10;66.38
3150;BME280;32503;47.748;8.960;2024-01-11T02:18:43;97751.31;;;0.11;66.61
3150;BME280;32503;47.748;8.960;2024-01-11T02:21:14;97730.56;;;0.03;66.30
3150;BME280;32503;47.748;8.960;2024-01-11T02:23:44;97750.25;;;0.12;66.49
3150;BME280;32503;47.748;8.960;2024-01-11T02:26:14;97749.72;;;0.15;66.67
3150;BME280;32503;47.748;8.960;2024-01-11T02:28:44;97741.47;;;0.16;66.50
3150;BME280;32503;47.748;8.960;2024-01-11T02:31:12;97738.56;;;0.18;66.69
3150;BME280;32503;47.748;8.960;2024-01-11T02:33:40;97730.59;;;0.18;66.47
3150;BME280;32503;47.748;8.960;2024-01-11T02:36:08;97721.25;;;0.15;66.22
3150;BME280;32503;47.748;8.960;2024-01-11T02:38:35;97728.97;;;0.22;66.08
3150;BME280;32503;47.748;8.960;2024-01-11T02:41:03;97736.16;;;0.22;66.35
3150;BME280;32503;47.748;8.960;2024-01-11T02:43:31;97735.09;;;0.23;66.06
3150;BME280;32503;47.748;8.960;2024-01-11T02:45:58;97732.16;;;0.24;65.99
3150;BME280;32503;47.748;8.960;2024-01-11T02:48:28;97737.22;;;0.26;65.81
3150;BME280;32503;47.748;8.960;2024-01-11T02:50:55;97733.78;;;0.25;65.79
3150;BME280;32503;47.748;8.960;2024-01-11T02:53:23;97724.72;;;0.26;65.88
3150;BME280;32503;47.748;8.960;2024-01-11T02:55:50;97731.13;;;0.25;65.67
3150;BME280;32503;47.748;8.960;2024-01-11T02:58:17;97726.31;;;0.27;65.70
3150;BME280;32503;47.748;8.960;2024-01-11T03:00:46;97719.41;;;0.26;65.39
3150;BME280;32503;47.748;8.960;2024-01-11T03:03:13;97723.66;;;0.22;65.57
3150;BME280;32503;47.748;8.960;2024-01-11T03:05:40;97719.41;;;0.26;65.56
3150;BME280;32503;47.748;8.960;2024-01-11T03:08:07;97711.97;;;0.18;65.16
3150;BME280;32503;47.748;8.960;2024-01-11T03:10:36;97722.31;;;0.25;65.30
3150;BME280;32503;47.748;8.960;2024-01-11T03:13:04;97726.84;;;0.24;65.23
3150;BME280;32503;47.748;8.960;2024-01-11T03:15:31;97715.94;;;0.21;65.11
3150;BME280;32503;47.748;8.960;2024-01-11T03:18:00;97718.88;;;0.24;65.09
3150;BME280;32503;47.748;8.960;2024-01-11T03:20:27;97726.84;;;0.24;65.28
3150;BME280;32503;47.748;8.960;2024-01-11T03:22:54;97718.84;;;0.19;64.97
3150;BME280;32503;47.748;8.960;2024-01-11T03:25:22;97711.97;;;0.18;64.64
3150;BME280;32503;47.748;8.960;2024-01-11T03:27:49;97707.69;;;0.12;64.52
3150;BME280;32503;47.748;8.960;2024-01-11T03:30:16;97714.09;;;0.11;64.72
3150;BME280;32503;47.748;8.960;2024-01-11T03:32:43;97711.13;;;0.12;64.45
3150;BME280;32503;47.748;8.960;2024-01-11T03:35:11;97722.59;;;0.08;64.48
3150;BME280;32503;47.748;8.960;2024-01-11T03:37:38;97719.91;;;-0.08;64.46
3150;BME280;32503;47.748;8.960;2024-01-11T03:40:07;97714.03;;;-0.15;64.63
3150;BME280;32503;47.748;8.960;2024-01-11T03:42:34;97721.25;;;-0.10;64.48
3150;BME280;32503;47.748;8.960;2024-01-11T03:45:01;97723.06;;;-0.16;64.62
3150;BME280;32503;47.748;8.960;2024-01-11T03:47:28;97723.09;;;-0.21;64.56
3150;BME280;32503;47.748;8.960;2024-01-11T03:49:56;97713.47;;;-0.32;64.75
3150;BME280;32503;47.748;8.960;2024-01-11T03:52:24;97716.66;;;-0.35;64.90
3150;BME280;32503;47.748;8.960;2024-01-11T03:54:51;97712.69;;;-0.33;64.89
3150;BME280;32503;47.748;8.960;2024-01-11T03:57:18;97708.69;;;-0.41;64.64
3150;BME280;32503;47.748;8.960;2024-01-11T03:59:45;97712.91;;;-0.50;65.22
3150;BME280;32503;47.748;8.960;2024-01-11T04:02:12;97700.16;;;-0.48;65.09
3150;BME280;32503;47.748;8.960;2024-01-11T04:04:41;97706.78;;;-0.50;65.04
3150;BME280;32503;47.748;8.960;2024-01-11T04:07:08;97707.03;;;-0.57;65.06
3150;BME280;32503;47.748;8.960;2024-01-11T04:09:38;97707.00;;;-0.62;65.18
3150;BME280;32503;47.748;8.960;2024-01-11T04:12:06;97711.28;;;-0.61;65.13
3150;BME280;32503;47.748;8.960;2024-01-11T04:14:33;97710.75;;;-0.63;65.05
3150;BME280;32503;47.748;8.960;2024-01-11T04:17:04;97703.00;;;-0.70;65.56
3150;BME280;32503;47.748;8.960;2024-01-11T04:19:31;97704.31;;;-0.72;65.51
3150;BME280;32503;47.748;8.960;2024-01-11T04:21:58;97705.38;;;-0.73;65.37
3150;BME280;32503;47.748;8.960;2024-01-11T04:24:25;97700.63;;;-0.71;65.27
3150;BME280;32503;47.748;8.960;2024-01-11T04:26:53;97703.25;;;-0.77;65.09
3150;BME280;32503;47.748;8.960;2024-01-11T04:29:24;97700.63;;;-0.71;64.76
3150;BME280;32503;47.748;8.960;2024-01-11T04:31:51;97709.06;;;-0.80;64.84
3150;BME280;32503;47.748;8.960;2024-01-11T04:34:18;97702.69;;;-0.84;64.92
3150;BME280;32503;47.748;8.960;2024-01-11T04:36:45;97705.59;;;-0.85;64.80
3150;BME280;32503;47.748;8.960;2024-01-11T04:39:12;97701.09;;;-0.90;64.91
3150;BME280;32503;47.748;8.960;2024-01-11T04:41:39;97698.66;;;-0.97;65.08
3150;BME280;32503;47.748;8.960;2024-01-11T04:44:08;97696.03;;;-0.91;65.28
3150;BME280;32503;47.748;8.960;2024-01-11T04:46:35;97697.84;;;-0.97;64.89
3150;BME280;32503;47.748;8.960;2024-01-11T04:49:02;97702.34;;;-1.03;65.15
3150;BME280;32503;47.748;8.960;2024-01-11T04:51:29;97696.25;;;-0.98;65.07
3150;BME280;32503;47.748;8.960;2024-01-11T04:53:56;97690.44;;;-0.95;64.92
3150;BME280;32503;47.748;8.960;2024-01-11T04:56:23;97689.94;;;-0.87;64.82
3150;BME280;32503;47.748;8.960;2024-01-11T04:58:50;97691.28;;;-0.84;64.72
3150;BME280;32503;47.748;8.960;2024-01-11T05:01:18;97680.91;;;-0.86;64.96
3150;BME280;32503;47.748;8.960;2024-01-11T05:03:46;97692.06;;;-0.84;65.08
3150;BME280;32503;47.748;8.960;2024-01-11T05:06:16;97687.28;;;-0.87;65.28
3150;BME280;32503;47.748;8.960;2024-01-11T05:08:44;97686.22;;;-0.86;65.35
3150;BME280;32503;47.748;8.960;2024-01-11T05:11:16;97691.81;;;-0.82;65.17
3150;BME280;32503;47.748;8.960;2024-01-11T05:13:44;97683.34;;;-0.79;65.15
3150;BME280;32503;47.748;8.960;2024-01-11T05:16:20;97684.94;;;-0.73;64.93
3150;BME280;32503;47.748;8.960;2024-01-11T05:18:48;97684.69;;;-0.66;64.84
3150;BME280;32503;47.748;8.960;2024-01-11T05:21:15;97690.78;;;-0.71;64.71
3150;BME280;32503;47.748;8.960;2024-01-11T05:23:42;97686.03;;;-0.69;64.82
3150;BME280;32503;47.748;8.960;2024-01-11T05:26:10;97681.53;;;-0.63;64.74
3150;BME280;32503;47.748;8.960;2024-01-11T05:28:37;97688.97;;;-0.65;64.89
3150;BME280;32503;47.748;8.960;2024-01-11T05:31:06;97687.38;;;-0.61;64.78
3150;BME280;32503;47.748;8.960;2024-01-11T05:33:35;97689.78;;;-0.60;64.70
3150;BME280;32503;47.748;8.960;2024-01-11T05:36:03;97698.00;;;-0.61;64.72
3150;BME280;32503;47.748;8.960;2024-01-11T05:38:30;97696.16;;;-0.50;64.38
3150;BME280;32503;47.748;8.960;2024-01-11T05:40:57;97695.38;;;-0.51;64.36
3150;BME280;32503;47.748;8.960;2024-01-11T05:43:24;97699.88;;;-0.51;64.38
3150;BME280;32503;47.748;8.960;2024-01-11T05:45:51;97685.22;;;-0.64;63.91
3150;BME280;32503;47.748;8.960;2024-01-11T05:48:18;97703.34;;;-0.56;64.12
3150;BME280;32503;47.748;8.960;2024-01-11T05:50:47;97713.94;;;-0.61;64.62
3150;BME280;32503;47.748;8.960;2024-01-11T05:53:14;97715.00;;;-0.57;64.25
3150;BME280;32503;47.748;8.960;2024-01-11T05:55:42;97715.53;;;-0.65;64.20
3150;BME280;32503;47.748;8.960;2024-01-11T05:58:10;97707.53;;;-0.70;64.07
3150;BME280;32503;47.748;8.960;2024-01-11T06:00:37;97715.50;;;-0.70;64.22
3150;BME280;32503;47.748;8.960;2024-01-11T06:03:06;97719.75;;;-0.69;64.24
3150;BME280;32503;47.748;8.960;2024-01-11T06:05:33;97712.03;;;-0.71;63.88
3150;BME280;32503;47.748;8.960;2024-01-11T06:08:01;97728.25;;;-0.67;63.96
3150;BME280;32503;47.748;8.960;2024-01-11T06:10:29;97727.72;;;-0.69;63.81
3150;BME280;32503;47.748;8.960;2024-01-11T06:12:56;97714.44;;;-0.69;63.43
3150;BME280;32503;47.748;8.960;2024-01-11T06:15:23;97715.25;;;-0.69;63.92
3150;BME280;32503;47.748;8.960;2024-01-11T06:17:50;97723.50;;;-0.65;63.82
3150;BME280;32503;47.748;8.960;2024-01-11T06:20:17;97728.25;;;-0.67;63.99
3150;BME280;32503;47.748;8.960;2024-01-11T06:22:44;97714.94;;;-0.78;63.75
3150;BME280;32503;47.748;8.960;2024-01-11T06:25:13;97733.84;;;-0.59;63.77
3150;BME280;32503;47.748;8.960;2024-01-11T06:27:42;97732.00;;;-0.58;63.72
3150;BME280;32503;47.748;8.960;2024-01-11T06:30:10;97685.94;;;-0.89;63.82
3150;BME280;32503;47.748;8.960;2024-01-11T06:32:38;97729.06;;;-0.67;63.73
3150;BME280;32503;47.748;8.960;2024-01-11T06:35:06;97718.44;;;-0.67;63.83
3150;BME280;32503;47.748;8.960;2024-01-11T06:37:33;97734.66;;;-0.63;63.77
3150;BME280;32503;47.748;8.960;2024-01-11T06:40:01;97737.84;;;-0.61;63.87
3150;BME280;32503;47.748;8.960;2024-01-11T06:42:30;97739.13;;;-0.74;63.83
3150;BME280;32503;47.748;8.960;2024-01-11T06:44:57;97749.75;;;-0.64;63.64
3150;BME280;32503;47.748;8.960;2024-01-11T06:47:25;97759.88;;;-0.61;63.80
3150;BME280;32503;47.748;8.960;2024-01-11T06:49:52;97751.66;;;-0.59;64.38
3150;BME280;32503;47.748;8.960;2024-01-11T06:52:19;97763.59;;;-0.62;63.79
3150;BME280;32503;47.748;8.960;2024-01-11T06:54:46;97755.63;;;-0.62;63.92
3150;BME280;32503;47.748;8.960;2024-01-11T06:57:13;97765.47;;;-0.57;63.97
3150;BME280;32503;47.748;8.960;2024-01-11T06:59:42;97736.72;;;-0.75;63.80
3150;BME280;32503;47.748;8.960;2024-01-11T07:02:09;97773.97;;;-0.55;64.06
3150;BME280;32503;47.748;8.960;2024-01-11T07:04:37;97770.25;;;-0.59;63.76
3150;BME280;32503;47.748;8.960;2024-01-11T07:07:04;97773.44;;;-0.57;63.78
3150;BME280;32503;47.748;8.960;2024-01-11T07:09:31;97778.22;;;-0.59;63.68
3150;BME280;32503;47.748;8.960;2024-01-11T07:11:58;97788.31;;;-0.61;63.86
3150;BME280;32503;47.748;8.960;2024-01-11T07:14:25;97785.94;;;-0.58;63.83
3150;BME280;32503;47.748;8.960;2024-01-11T07:16:53;97790.44;;;-0.58;63.96
3150;BME280;32503;47.748;8.960;2024-01-11T07:19:20;97784.06;;;-0.57;63.91
3150;BME280;32503;47.748;8.960;2024-01-11T07:21:47;97790.44;;;-0.58;63.76
3150;BME280;32503;47.748;8.960;2024-01-11T07:24:14;97733.13;;;-1.02;63.74
3150;BME280;32503;47.748;8.960;2024-01-11T07:26:44;97790.16;;;-0.62;63.74
3150;BME280;32503;47.748;8.960;2024-01-11T07:29:11;97783.03;;;-0.56;63.53
3150;BME280;32503;47.748;8.960;2024-01-11T07:31:38;97798.13;;;-0.57;63.63
3150;BME280;32503;47.748;8.960;2024-01-11T07:34:06;97794.69;;;-0.57;63.77
3150;BME280;32503;47.748;8.960;2024-01-11T07:36:33;97795.75;;;-0.58;63.85
3150;BME280;32503;47.748;8.960;2024-01-11T07:39:01;97795.47;;;-0.57;63.87
3150;BME280;32503;47.748;8.960;2024-01-11T07:41:28;97796.31;;;-0.56;64.02
3150;BME280;32503;47.748;8.960;2024-01-11T07:43:55;97802.66;;;-0.57;64.09
3150;BME280;32503;47.748;8.960;2024-01-11T07:46:24;97788.84;;;-0.59;63.88
3150;BME280;32503;47.748;8.960;2024-01-11T07:48:51;97804.00;;;-0.54;64.02
3150;BME280;32503;47.748;8.960;2024-01-11T07:51:20;97810.94;;;-0.48;63.71
3150;BME280;32503;47.748;8.960;2024-01-11T07:53:47;97819.44;;;-0.46;63.84
3150;BME280;32503;47.748;8.960;2024-01-11T07:56:14;97814.09;;;-0.51;63.52
3150;BME280;32503;47.748;8.960;2024-01-11T07:58:41;97816.25;;;-0.48;63.69
3150;BME280;32503;47.748;8.960;2024-01-11T08:01:09;97819.97;;;-0.49;63.53
3150;BME280;32503;47.748;8.960;2024-01-11T08:03:36;97817.56;;;-0.51;63.43
3150;BME280;32503;47.748;8.960;2024-01-11T08:06:04;97833.53;;;-0.51;63.51
3150;BME280;32503;47.748;8.960;2024-01-11T08:08:34;97827.94;;;-0.49;63.56
3150;BME280;32503;47.748;8.960;2024-01-11T08:11:02;97826.03;;;-0.59;63.72
3150;BME280;32503;47.748;8.960;2024-01-11T08:13:29;97814.81;;;-0.71;63.93
3150;BME280;32503;47.748;8.960;2024-01-11T08:15:57;97832.66;;;-0.57;63.95
3150;BME280;32503;47.748;8.960;2024-01-11T08:18:24;97827.91;;;-0.54;63.84
3150;BME280;32503;47.748;8.960;2024-01-11T08:20:52;97836.72;;;-0.49;63.84
3150;BME280;32503;47.748;8.960;2024-01-11T08:23:19;97837.75;;;-0.50;63.89
3150;BME280;32503;47.748;8.960;2024-01-11T08:25:47;97836.19;;;-0.51;63.98
3150;BME280;32503;47.748;8.960;2024-01-11T08:28:15;97839.91;;;-0.47;63.87
3150;BME280;32503;47.748;8.960;2024-01-11T08:30:42;97845.22;;;-0.47;63.83
3150;BME280;32503;47.748;8.960;2024-01-11T08:33:09;97841.53;;;-0.41;63.70
3150;BME280;32503;47.748;8.960;2024-01-11T08:35:36;97864.84;;;-0.53;63.57
3150;BME280;32503;47.748;8.960;2024-01-11T08:38:05;97856.06;;;-0.53;63.69
3150;BME280;32503;47.748;8.960;2024-01-11T08:40:34;97863.78;;;-0.52;63.48
3150;BME280;32503;47.748;8.960;2024-01-11T08:43:03;97850.75;;;-0.53;63.76
3150;BME280;32503;47.748;8.960;2024-01-11T08:45:30;97859.50;;;-0.58;63.59
3150;BME280;32503;47.748;8.960;2024-01-11T08:47:57;97854.75;;;-0.56;63.58
3150;BME280;32503;47.748;8.960;2024-01-11T08:50:24;97857.91;;;-0.59;63.56
3150;BME280;32503;47.748;8.960;2024-01-11T08:52:51;97864.78;;;-0.63;64.07
3150;BME280;32503;47.748;8.960;2024-01-11T08:55:21;97857.84;;;-0.69;64.24
3150;BME280;32503;47.748;8.960;2024-01-11T08:57:48;97861.88;;;-0.57;64.11
3150;BME280;32503;47.748;8.960;2024-01-11T09:00:17;97860.00;;;-0.61;64.22
3150;BME280;32503;47.748;8.960;2024-01-11T09:02:44;97856.28;;;-0.60;64.23
3150;BME280;32503;47.748;8.960;2024-01-11T09:05:11;97862.16;;;-0.58;64.32
3150;BME280;32503;47.748;8.960;2024-01-11T09:07:38;97865.34;;;-0.61;64.60
3150;BME280;32503;47.748;8.960;2024-01-11T09:10:07;97861.59;;;-0.60;64.10
3150;BME280;32503;47.748;8.960;2024-01-11T09:12:35;97854.47;;;-0.54;64.27
3150;BME280;32503;47.748;8.960;2024-01-11T09:15:03;97853.69;;;-0.50;64.29
3150;BME280;32503;47.748;8.960;2024-01-11T09:17:32;97852.13;;;-0.46;64.35
3150;BME280;32503;47.748;8.960;2024-01-11T09:19:59;97854.81;;;-0.41;64.04
3150;BME280;32503;47.748;8.960;2024-01-11T09:22:26;97858.53;;;-0.42;63.86
3150;BME280;32503;47.748;8.960;2024-01-11T09:24:53;97870.78;;;-0.41;63.82
3150;BME280;32503;47.748;8.960;2024-01-11T09:27:21;97870.19;;;-0.43;63.44
3150;BME280;32503;47.748;8.960;2024-01-11T09:29:48;97872.81;;;-0.48;63.51
3150;BME280;32503;47.748;8.960;2024-01-11T09:32:15;97877.06;;;-0.52;63.35
3150;BME280;32503;47.748;8.960;2024-01-11T09:34:43;97870.13;;;-0.58;63.45
3150;BME280;32503;47.748;8.960;2024-01-11T09:37:11;97883.72;;;-0.54;63.54
3150;BME280;32503;47.748;8.960;2024-01-11T09:39:38;97885.53;;;-0.55;63.18
3150;BME280;32503;47.748;8.960;2024-01-11T09:42:07;97883.41;;;-0.58;63.33
3150;BME280;32503;47.748;8.960;2024-01-11T09:44:36;97881.22;;;-0.66;63.71
3150;BME280;32503;47.748;8.960;2024-01-11T09:47:05;97887.59;;;-0.67;63.53
3150;BME280;32503;47.748;8.960;2024-01-11T09:49:36;97859.88;;;-0.82;63.97
3150;BME280;32503;47.748;8.960;2024-01-11T09:52:06;97883.38;;;-0.63;63.94
3150;BME280;32503;47.748;8.960;2024-01-11T09:54:35;97883.97;;;-0.56;63.89
3150;BME280;32503;47.748;8.960;2024-01-11T09:57:04;97891.41;;;-0.48;63.66
3150;BME280;32503;47.748;8.960;2024-01-11T09:59:33;97894.91;;;-0.47;63.39
3150;BME280;32503;47.748;8.960;2024-01-11T10:02:03;97862.44;;;-0.60;63.55
3150;BME280;32503;47.748;8.960;2024-01-11T10:04:33;97871.50;;;-0.50;63.42
3150;BME280;32503;47.748;8.960;2024-01-11T10:07:03;97902.66;;;-0.35;62.82
3150;BME280;32503;47.748;8.960;2024-01-11T10:09:33;97903.72;;;-0.36;62.75
3150;BME280;32503;47.748;8.960;2024-01-11T10:12:00;97916.50;;;-0.33;62.27
3150;BME280;32503;47.748;8.960;2024-01-11T10:14:27;97929.22;;;-0.41;62.53
3150;BME280;32503;47.748;8.960;2024-01-11T10:16:54;97921.75;;;-0.44;62.68
3150;BME280;32503;47.748;8.960;2024-01-11T10:19:21;97911.66;;;-0.42;62.51
3150;BME280;32503;47.748;8.960;2024-01-11T10:21:48;97905.31;;;-0.41;62.27
3150;BME280;32503;47.748;8.960;2024-01-11T10:24:18;97883.97;;;-0.56;62.81
3150;BME280;32503;47.748;8.960;2024-01-11T10:26:47;97881.84;;;-0.54;62.78
3150;BME280;32503;47.748;8.960;2024-01-11T10:29:14;97900.81;;;-0.35;62.47
3150;BME280;32503;47.748;8.960;2024-01-11T10:31:43;97910.09;;;-0.38;62.24
3150;BME280;32503;47.748;8.960;2024-01-11T10:34:10;97905.31;;;-0.35;62.31
3150;BME280;32503;47.748;8.960;2024-01-11T10:36:37;97903.97;;;-0.38;62.31
3150;BME280;32503;47.748;8.960;2024-01-11T10:39:08;97901.50;;;-0.50;62.30
3150;BME280;32503;47.748;8.960;2024-01-11T10:41:40;97907.41;;;-0.43;62.59
3150;BME280;32503;47.748;8.960;2024-01-11T10:44:17;97909.84;;;-0.36;62.35
3150;BME280;32503;47.748;8.960;2024-01-11T10:46:46;97893.63;;;-0.34;62.57
3150;BME280;32503;47.748;8.960;2024-01-11T10:49:17;97901.66;;;-0.24;62.39
3150;BME280;32503;47.748;8.960;2024-01-11T10:51:53;97883.53;;;-0.32;62.19
3150;BME280;32503;47.748;8.960;2024-01-11T10:54:23;97876.66;;;-0.28;62.02
3150;BME280;32503;47.748;8.960;2024-01-11T10:56:51;97891.03;;;-0.24;61.85
3150;BME280;32503;47.748;8.960;2024-01-11T10:59:22;97886.00;;;-0.21;61.86
3150;BME280;32503;47.748;8.960;2024-01-11T11:01:52;97880.69;;;-0.21;61.98
3150;BME280;32503;47.748;8.960;2024-01-11T11:04:22;97880.47;;;-0.14;61.77
3150;BME280;32503;47.748;8.960;2024-01-11T11:06:50;97866.63;;;-0.11;61.76
3150;BME280;32503;47.748;8.960;2024-01-11T11:09:18;97874.38;;;-0.04;61.81
3150;BME280;32503;47.748;8.960;2024-01-11T11:11:46;97871.22;;;0.04;61.60
3150;BME280;32503;47.748;8.960;2024-01-11T11:14:15;97862.97;;;0.06;61.50
3150;BME280;32503;47.748;8.960;2024-01-11T11:16:45;97864.59;;;0.12;61.58
3150;BME280;32503;47.748;8.960;2024-01-11T11:19:12;97858.22;;;0.13;61.31
3150;BME280;32503;47.748;8.960;2024-01-11T11:21:42;97857.63;;;-0.05;61.73
3150;BME280;32503;47.748;8.960;2024-01-11T11:24:10;97840.59;;;-0.09;61.91
3150;BME280;32503;47.748;8.960;2024-01-11T11:26:37;97852.09;;;0.07;61.47
3150;BME280;32503;47.748;8.960;2024-01-11T11:29:04;97851.47;;;-0.15;62.30
3150;BME280;32503;47.748;8.960;2024-01-11T11:31:36;97839.69;;;-0.35;62.59
3150;BME280;32503;47.748;8.960;2024-01-11T11:34:05;97832.97;;;-0.53;63.15
3150;BME280;32503;47.748;8.960;2024-01-11T11:36:33;97833.22;;;-0.54;63.59
3150;BME280;32503;47.748;8.960;2024-01-11T11:39:02;97824.41;;;-0.60;63.60
3150;BME280;32503;47.748;8.960;2024-01-11T11:41:31;97842.50;;;-0.57;64.02
3150;BME280;32503;47.748;8.960;2024-01-11T11:44:01;97843.13;;;-0.40;64.17
3150;BME280;32503;47.748;8.960;2024-01-11T11:46:29;97836.19;;;-0.46;63.78
3150;BME280;32503;47.748;8.960;2024-01-11T11:48:57;97840.47;;;-0.40;63.64
3150;BME280;32503;47.748;8.960;2024-01-11T11:51:26;97846.00;;;-0.46;63.70
3150;BME280;32503;47.748;8.960;2024-01-11T11:53:53;97831.97;;;-0.42;63.66
3150;BME280;32503;47.748;8.960;2024-01-11T11:56:21;97830.31;;;-0.48;63.72
3150;BME280;32503;47.748;8.960;2024-01-11T11:58:49;97830.91;;;-0.41;63.72
3150;BME280;32503;47.748;8.960;2024-01-11T12:01:18;97837.84;;;-0.34;63.72
3150;BME280;32503;47.748;8.960;2024-01-11T12:03:46;97833.63;;;-0.20;63.39
3150;BME280;32503;47.748;8.960;2024-01-11T12:06:17;97831.25;;;-0.16;63.16
3150;BME280;32503;47.748;8.960;2024-01-11T12:08:47;97822.28;;;-0.05;62.98
3150;BME280;32503;47.748;8.960;2024-01-11T12:11:16;97812.72;;;0.04;62.69
3150;BME280;32503;47.748;8.960;2024-01-11T12:13:44;97828.44;;;0.21;62.64
3150;BME280;32503;47.748;8.960;2024-01-11T12:16:12;97813.03;;;0.28;62.52
3150;BME280;32503;47.748;8.960;2024-01-11T12:18:39;97820.75;;;0.45;62.10
3150;BME280;32503;47.748;8.960;2024-01-11T12:21:07;97818.91;;;0.56;62.08
3150;BME280;32503;47.748;8.960;2024-01-11T12:23:38;97821.56;;;0.61;62.37
3150;BME280;32503;47.748;8.960;2024-01-11T12:26:07;97819.19;;;0.70;62.18
3150;BME280;32503;47.748;8.960;2024-01-11T12:28:39;97802.69;;;0.73;62.21
3150;BME280;32503;47.748;8.960;2024-01-11T12:31:10;97812.78;;;0.86;62.21
3150;BME280;32503;47.748;8.960;2024-01-11T12:33:38;97815.72;;;0.85;62.20
3150;BME280;32503;47.748;8.960;2024-01-11T12:36:09;97806.66;;;0.81;61.90
3150;BME280;32503;47.748;8.960;2024-01-11T12:38:36;97819.44;;;0.94;61.50
3150;BME280;32503;47.748;8.960;2024-01-11T12:41:06;97806.94;;;0.84;61.67
3150;BME280;32503;47.748;8.960;2024-01-11T12:43:34;97820.25;;;0.89;61.42
3150;BME280;32503;47.748;8.960;2024-01-11T12:46:01;97824.25;;;0.87;61.65
3150;BME280;32503;47.748;8.960;2024-01-11T12:48:28;97817.84;;;0.88;61.38
3150;BME280;32503;47.748;8.960;2024-01-11T12:50:56;97817.84;;;0.93;61.46
3150;BME280;32503;47.748;8.960;2024-01-11T12:53:26;97826.34;;;0.95;61.86
3150;BME280;32503;47.748;8.960;2024-01-11T12:56:04;97839.13;;;1.03;61.64
3150;BME280;32503;47.748;8.960;2024-01-11T12:58:35;97832.19;;;1.12;61.07
3150;BME280;32503;47.748;8.960;2024-01-11T13:01:03;97824.19;;;1.18;61.20
3150;BME280;32503;47.748;8.960;2024-01-11T13:03:30;97829.53;;;1.23;60.65
3150;BME280;32503;47.748;8.960;2024-01-11T13:05:57;97827.13;;;1.21;60.51
3150;BME280;32503;47.748;8.960;2024-01-11T13:08:25;97822.88;;;1.15;60.60
3150;BME280;32503;47.748;8.960;2024-01-11T13:10:53;97830.88;;;1.15;60.80
3150;BME280;32503;47.748;8.960;2024-01-11T13:13:20;97828.75;;;1.17;60.73
3150;BME280;32503;47.748;8.960;2024-01-11T13:15:48;97825.81;;;1.13;60.12
3150;BME280;32503;47.748;8.960;2024-01-11T13:18:16;97808.75;;;1.09;60.33